モスクワ/シェレメーチエヴォ の空港の天気 - METARとTAF

シェレメーチエヴォ国際空港(モスクワ) ( UUEE / SVO ) - ロシア モスクワ
飛行場実況気象(Metar)
観測時間04/26 14:00 MSK (04/26 11:00 UTC)
風向・風速南西 6m/s
視程10km以上
天気現象
全天の8割程度の雲 雲底高度 400m
気温13℃
湿度82%
気圧995hPa
METARUUEE 261100Z 23006MPS 9999 BKN013 13/10 Q0995 R24L/290151 R24C/290145 TEMPO VRB18MPS 2100 -TSRA SQ BKN015CB
過去の天気等 Google飛行場航空写真 Wunderground天気予報

過去48時間のMETAR

飛行場予報(TAF)
発表時間: 4/26 12:24 MSK (4/26 09:24 UTC)
予報対象時間: 26日12時 MSK ~ 27日12時 MSK
風向・風速南南東 6m/s
視程6,000m
天気現象弱い雨
全天の8割程度の雲 雲底高度 210m
26日12時 MSK ~ 26日13時 MSK に徐々に
風向・風速西 9m/s 瞬間風速 14m/s
26日13時 MSK ~ 26日18時 MSK に一時的に
風向・風速不定 16m/s
視程2,100m
天気現象弱い雷雨
全天の8割程度の雲 雲底高度 90m
全天の8割程度の積乱雲 雲底高度 460m
26日18時 MSK ~ 26日20時 MSK に徐々に
視程10km以上
天気現象運行に影響にある天気現象が終了
26日22時 MSK ~ 26日24時 MSK に徐々に
風向・風速西 6m/s
TAF AMD UUEE 260924Z 2609/2709 16006MPS 6000 -RA BKN007 TX13/2612Z TN05/2703Z
BECMG 2609/2610 26009G14MPS
TEMPO 2610/2615 VRB16MPS 2100 -TSRA BKN003 BKN015CB
BECMG 2615/2617 9999 NSW
BECMG 2619/2621 27006MPS